createdAt,value
2018-11-04T00:01:05.420Z,4.78
2018-11-04T00:03:33.775Z,4.78
2018-11-04T00:06:01.523Z,4.79
2018-11-04T00:08:29.846Z,4.79
2018-11-04T00:10:58.751Z,4.81
2018-11-04T00:13:27.078Z,4.79
2018-11-04T00:15:55.405Z,4.78
2018-11-04T00:18:23.742Z,4.77
2018-11-04T00:20:52.069Z,4.76
2018-11-04T00:23:19.800Z,4.76
2018-11-04T00:25:48.163Z,4.78
2018-11-04T00:28:17.075Z,4.81
2018-11-04T00:30:45.407Z,4.81
2018-11-04T00:33:14.096Z,4.80
2018-11-04T00:35:42.415Z,4.87
2018-11-04T00:38:10.757Z,4.94
2018-11-04T00:40:39.063Z,5.03
2018-11-04T00:43:07.388Z,5.10
2018-11-04T00:45:35.735Z,5.08
2018-11-04T00:48:04.033Z,5.05
2018-11-04T00:50:31.785Z,5.02
2018-11-04T00:53:00.682Z,4.98
2018-11-04T00:55:28.441Z,4.94
2018-11-04T00:57:57.180Z,4.91
2018-11-04T01:00:25.099Z,4.93
2018-11-04T01:02:53.999Z,4.93
2018-11-04T01:05:22.329Z,4.90
2018-11-04T01:07:50.073Z,4.87
2018-11-04T01:10:18.992Z,4.88
2018-11-04T01:12:47.301Z,4.88
2018-11-04T01:15:15.619Z,4.90
2018-11-04T01:17:43.937Z,4.88
2018-11-04T01:20:12.271Z,4.92
2018-11-04T01:22:40.010Z,5.03
2018-11-04T01:25:08.347Z,5.12
2018-11-04T01:27:37.268Z,5.16
2018-11-04T01:30:05.036Z,5.16
2018-11-04T01:32:33.916Z,5.12
2018-11-04T01:35:01.668Z,5.09
2018-11-04T01:37:30.042Z,5.07
2018-11-04T01:39:58.319Z,5.03
2018-11-04T01:42:27.227Z,4.99
2018-11-04T01:44:54.983Z,4.97
2018-11-04T01:47:23.312Z,4.93
2018-11-04T01:49:52.212Z,4.90
2018-11-04T01:52:20.542Z,4.83
2018-11-04T01:54:48.868Z,4.77
2018-11-04T01:57:17.197Z,4.76
2018-11-04T01:59:45.542Z,4.78
2018-11-04T02:02:13.862Z,4.82
2018-11-04T02:04:41.635Z,4.83
2018-11-04T02:07:10.502Z,4.83
2018-11-04T02:09:38.253Z,4.80
2018-11-04T02:12:06.658Z,4.81
2018-11-04T02:14:35.489Z,4.79
2018-11-04T02:17:03.813Z,4.79
2018-11-04T02:19:31.556Z,4.80
2018-11-04T02:22:00.458Z,4.76
2018-11-04T02:24:28.204Z,4.77
2018-11-04T02:26:57.122Z,4.80
2018-11-04T02:29:25.466Z,4.82
2018-11-04T02:31:53.208Z,4.80
2018-11-04T02:34:22.124Z,4.77
2018-11-04T02:36:49.858Z,4.77
2018-11-04T02:39:18.760Z,4.73
2018-11-04T02:41:47.088Z,4.68
2018-11-04T02:44:14.829Z,4.66
2018-11-04T02:46:43.219Z,4.70
2018-11-04T02:49:11.477Z,4.74
2018-11-04T02:51:39.794Z,4.72
2018-11-04T02:54:08.696Z,4.76
2018-11-04T02:56:36.432Z,4.85
2018-11-04T02:59:04.750Z,4.91
2018-11-04T03:01:33.658Z,4.95
2018-11-04T03:04:01.975Z,5.00
2018-11-04T03:06:29.718Z,5.02
2018-11-04T03:08:58.040Z,5.03
2018-11-04T03:11:26.370Z,4.97
2018-11-04T03:13:54.687Z,4.94
2018-11-04T03:16:23.034Z,4.93
2018-11-04T03:18:51.358Z,4.91
2018-11-04T03:21:19.685Z,4.92
2018-11-04T03:23:48.583Z,4.94
2018-11-04T03:26:16.390Z,4.89
2018-11-04T03:28:45.271Z,4.86
2018-11-04T03:31:13.619Z,4.91
2018-11-04T03:33:41.354Z,4.93
2018-11-04T03:36:10.272Z,4.95
2018-11-04T03:38:38.609Z,4.97
2018-11-04T03:41:06.918Z,4.98
2018-11-04T03:43:34.664Z,4.99
2018-11-04T03:46:03.322Z,5.01
2018-11-04T03:48:32.218Z,5.09
2018-11-04T03:51:00.533Z,5.12
2018-11-04T03:53:28.276Z,5.13
2018-11-04T03:55:57.174Z,5.19
2018-11-04T03:58:25.503Z,5.25
2018-11-04T04:00:53.822Z,5.37
2018-11-04T04:03:22.155Z,5.45
2018-11-04T04:05:49.893Z,5.52
2018-11-04T04:08:18.231Z,5.63
2018-11-04T04:10:46.548Z,5.78
2018-11-04T04:13:14.867Z,5.84
2018-11-04T04:15:43.181Z,5.81
2018-11-04T04:18:12.078Z,5.78
2018-11-04T04:20:39.816Z,5.79
2018-11-04T04:23:08.133Z,5.83
2018-11-04T04:25:37.028Z,5.93
2018-11-04T04:28:04.785Z,6.03
2018-11-04T04:30:33.691Z,6.08
2018-11-04T04:33:02.036Z,6.13
2018-11-04T04:35:30.350Z,6.17
2018-11-04T04:37:58.675Z,6.17
2018-11-04T04:40:26.422Z,6.21
2018-11-04T04:42:55.322Z,6.23
2018-11-04T04:45:23.060Z,6.25
2018-11-04T04:47:51.981Z,6.28
2018-11-04T04:50:20.291Z,6.28
2018-11-04T04:52:48.608Z,6.29
2018-11-04T04:55:16.342Z,6.27
2018-11-04T04:57:45.246Z,6.21
2018-11-04T05:00:13.576Z,6.06
2018-11-04T05:02:41.901Z,5.92
2018-11-04T05:05:10.218Z,5.81
2018-11-04T05:07:37.966Z,5.76
2018-11-04T05:10:06.289Z,5.74
2018-11-04T05:12:35.196Z,5.71
2018-11-04T05:15:03.526Z,5.71
2018-11-04T05:17:31.851Z,5.72
2018-11-04T05:20:00.167Z,5.70
2018-11-04T05:22:27.914Z,5.63
2018-11-04T05:24:56.819Z,5.59
2018-11-04T05:27:25.055Z,5.59
2018-11-04T05:29:53.474Z,5.60
2018-11-04T05:32:21.807Z,5.63
2018-11-04T05:34:50.157Z,5.59
2018-11-04T05:37:17.908Z,5.60
2018-11-04T05:39:46.257Z,5.64
2018-11-04T05:42:14.583Z,5.65
2018-11-04T05:44:43.491Z,5.69
2018-11-04T05:47:11.806Z,5.75
2018-11-04T05:49:40.135Z,5.79
2018-11-04T05:52:08.454Z,5.82
2018-11-04T05:54:36.771Z,5.82
2018-11-04T05:57:05.108Z,5.82
2018-11-04T05:59:32.849Z,5.85
2018-11-04T06:02:01.167Z,5.89
2018-11-04T06:04:29.499Z,5.93
2018-11-04T06:06:58.394Z,5.94
2018-11-04T06:09:26.138Z,5.93
2018-11-04T06:11:54.465Z,5.93
2018-11-04T06:14:23.374Z,5.95
2018-11-04T06:16:51.121Z,5.97
2018-11-04T06:19:19.441Z,5.98
2018-11-04T06:21:47.755Z,6.00
2018-11-04T06:24:16.655Z,6.02
2018-11-04T06:26:44.394Z,6.06
2018-11-04T06:29:13.294Z,6.09
2018-11-04T06:31:41.048Z,6.13
2018-11-04T06:34:09.372Z,6.12
2018-11-04T06:36:37.732Z,6.15
2018-11-04T06:39:06.637Z,6.16
2018-11-04T06:41:34.998Z,6.22
2018-11-04T06:44:02.745Z,6.24
2018-11-04T06:46:31.073Z,6.24
2018-11-04T06:48:59.983Z,6.29
2018-11-04T06:51:28.310Z,6.34
2018-11-04T06:53:56.048Z,6.39
2018-11-04T06:56:24.384Z,6.44
2018-11-04T06:58:53.310Z,6.50
2018-11-04T07:01:21.060Z,6.52
2018-11-04T07:03:49.390Z,6.51
2018-11-04T07:06:18.294Z,6.56
2018-11-04T07:08:46.620Z,6.62
2018-11-04T07:11:14.376Z,6.69
2018-11-04T07:13:42.712Z,6.75
2018-11-04T07:16:11.615Z,6.80
2018-11-04T07:18:39.943Z,6.86
2018-11-04T07:21:08.266Z,6.90
2018-11-04T07:23:36.603Z,6.92
2018-11-04T07:26:04.931Z,6.97
2018-11-04T07:28:32.741Z,6.99
2018-11-04T07:31:01.029Z,7.02
2018-11-04T07:33:29.348Z,7.07
2018-11-04T07:35:58.255Z,7.13
2018-11-04T07:38:28.407Z,7.18
2018-11-04T07:40:54.736Z,7.24
2018-11-04T07:43:23.514Z,7.30
2018-11-04T07:45:51.970Z,7.37
2018-11-04T07:48:20.296Z,7.43
2018-11-04T07:50:48.656Z,7.50
2018-11-04T07:53:16.675Z,7.57
2018-11-04T07:55:45.574Z,7.67
2018-11-04T07:58:13.320Z,7.75
2018-11-04T08:00:42.528Z,7.84
2018-11-04T08:03:10.816Z,7.92
2018-11-04T08:05:38.582Z,8.02
2018-11-04T08:08:07.809Z,8.11
2018-11-04T08:10:36.126Z,8.21
2018-11-04T08:13:03.870Z,8.31
2018-11-04T08:15:32.201Z,8.42
2018-11-04T08:18:01.124Z,8.53
2018-11-04T08:20:29.451Z,8.62
2018-11-04T08:22:57.185Z,8.72
2018-11-04T08:25:26.088Z,8.82
2018-11-04T08:27:54.566Z,8.90
2018-11-04T08:30:22.596Z,8.98
2018-11-04T08:32:51.415Z,9.06
2018-11-04T08:35:21.295Z,9.17
2018-11-04T08:37:48.981Z,9.27
2018-11-04T08:40:17.641Z,9.37
2018-11-04T08:42:45.961Z,9.48
2018-11-04T08:45:13.710Z,9.60
2018-11-04T08:47:48.841Z,9.72
2018-11-04T08:50:17.179Z,9.82
2018-11-04T08:52:44.921Z,9.90
2018-11-04T08:55:13.381Z,10.00
2018-11-04T08:57:42.168Z,10.09
2018-11-04T09:00:09.991Z,10.18
2018-11-04T09:02:38.261Z,10.27
2018-11-04T09:05:07.177Z,10.35
2018-11-04T09:07:35.545Z,10.44
2018-11-04T09:10:03.879Z,10.50
2018-11-04T09:12:32.224Z,10.48
2018-11-04T09:15:00.546Z,10.46
2018-11-04T09:17:28.296Z,10.49
2018-11-04T09:19:57.535Z,10.55
2018-11-04T09:22:25.352Z,10.60
2018-11-04T09:24:54.184Z,10.64
2018-11-04T09:27:22.808Z,10.72
2018-11-04T09:29:51.150Z,10.76
2018-11-04T09:32:18.901Z,10.76
2018-11-04T09:34:47.835Z,10.73
2018-11-04T09:37:15.570Z,10.71
2018-11-04T09:39:43.914Z,10.68
2018-11-04T09:42:12.885Z,10.65
2018-11-04T09:44:40.665Z,10.67
2018-11-04T09:47:09.563Z,10.73
2018-11-04T09:49:38.893Z,10.75
2018-11-04T09:52:05.952Z,10.79
2018-11-04T09:54:34.858Z,10.82
2018-11-04T09:57:03.193Z,10.85
2018-11-04T09:59:31.519Z,10.87
2018-11-04T10:01:59.844Z,10.88
2018-11-04T10:04:28.214Z,10.93
2018-11-04T10:06:56.588Z,11.01
2018-11-04T10:09:24.318Z,11.09
2018-11-04T10:11:53.223Z,11.17
2018-11-04T10:14:21.550Z,11.23
2018-11-04T10:16:49.883Z,11.24
2018-11-04T10:19:17.843Z,11.24
2018-11-04T10:21:45.971Z,11.27
2018-11-04T10:24:14.289Z,11.32
2018-11-04T10:26:43.222Z,11.35
2018-11-04T10:29:11.544Z,11.34
2018-11-04T10:31:39.856Z,11.36
2018-11-04T10:34:07.594Z,11.41
2018-11-04T10:36:35.926Z,11.46
2018-11-04T10:39:04.254Z,11.49
2018-11-04T10:41:33.167Z,11.50
2018-11-04T10:44:01.529Z,11.55
2018-11-04T10:46:30.148Z,11.57
2018-11-04T10:48:58.484Z,11.62
2018-11-04T10:51:26.820Z,11.68
2018-11-04T10:53:55.144Z,11.69
2018-11-04T10:56:23.478Z,11.71
2018-11-04T10:58:52.239Z,11.70
2018-11-04T11:01:21.081Z,11.70
2018-11-04T11:03:48.813Z,11.72
2018-11-04T11:06:18.314Z,11.76
2018-11-04T11:08:47.228Z,11.80
2018-11-04T11:11:15.600Z,11.82
2018-11-04T11:13:44.039Z,11.87
2018-11-04T11:16:12.285Z,11.94
2018-11-04T11:18:40.803Z,11.96
2018-11-04T11:21:09.883Z,11.98
2018-11-04T11:23:38.195Z,11.94
2018-11-04T11:26:06.039Z,11.94
2018-11-04T11:28:35.217Z,11.95
2018-11-04T11:31:03.752Z,11.98
2018-11-04T11:33:32.238Z,12.05
2018-11-04T11:36:00.733Z,12.09
2018-11-04T11:38:28.624Z,12.14
2018-11-04T11:41:03.668Z,12.15
2018-11-04T11:43:32.137Z,12.22
2018-11-04T11:46:00.441Z,12.27
2018-11-04T11:48:28.764Z,12.26
2018-11-04T11:50:58.255Z,12.21
2018-11-04T11:53:26.572Z,12.18
2018-11-04T11:55:55.024Z,12.14
2018-11-04T11:58:23.453Z,12.07
2018-11-04T12:00:53.992Z,12.03
2018-11-04T12:03:22.467Z,11.99
2018-11-04T12:08:25.804Z,11.93
2018-11-04T12:10:54.143Z,11.92
2018-11-04T12:13:22.458Z,11.91
2018-11-04T12:15:51.320Z,11.89
2018-11-04T12:18:19.641Z,11.85
2018-11-04T12:20:48.536Z,11.83
2018-11-04T12:23:17.046Z,11.85
2018-11-04T12:25:46.284Z,11.87
2018-11-04T12:28:15.182Z,11.92
2018-11-04T12:30:43.504Z,11.94
2018-11-04T12:33:11.952Z,11.98
2018-11-04T12:35:43.443Z,12.05
2018-11-04T12:38:11.167Z,12.08
2018-11-04T12:40:39.997Z,12.11
2018-11-04T12:43:09.701Z,12.16
2018-11-04T12:45:38.098Z,12.15
2018-11-04T12:48:07.292Z,12.14
2018-11-04T12:50:36.708Z,12.08
2018-11-04T12:53:04.244Z,12.05
2018-11-04T12:55:33.700Z,12.02
2018-11-04T12:58:02.285Z,12.01
2018-11-04T13:00:31.582Z,12.02
2018-11-04T13:03:01.380Z,11.96
2018-11-04T13:05:29.887Z,11.89
2018-11-04T13:08:00.513Z,11.84
2018-11-04T13:10:30.095Z,11.82
2018-11-04T13:12:58.418Z,11.83
2018-11-04T13:15:26.985Z,11.84
2018-11-04T13:17:54.909Z,11.83
2018-11-04T13:20:23.892Z,11.83
2018-11-04T13:22:53.453Z,11.80
2018-11-04T13:25:21.206Z,11.76
2018-11-04T13:27:49.571Z,11.73
2018-11-04T13:30:19.012Z,11.72
2018-11-04T13:32:47.344Z,11.72
2018-11-04T13:35:15.675Z,11.71
2018-11-04T13:37:44.684Z,11.72
2018-11-04T13:40:12.540Z,11.69
2018-11-04T13:42:41.472Z,11.63
2018-11-04T13:45:09.908Z,11.61
2018-11-04T13:47:37.574Z,11.57
2018-11-04T13:50:06.670Z,11.52
2018-11-04T13:52:34.988Z,11.50
2018-11-04T13:55:03.448Z,11.51
2018-11-04T13:57:32.869Z,11.49
2018-11-04T14:00:01.456Z,11.48
2018-11-04T14:02:30.657Z,11.48
2018-11-04T14:04:59.737Z,11.48
2018-11-04T14:07:27.479Z,11.48
2018-11-04T14:09:55.839Z,11.46
2018-11-04T14:12:24.844Z,11.43
2018-11-04T14:14:53.164Z,11.43
2018-11-04T14:17:21.481Z,11.41
2018-11-04T14:19:49.983Z,11.39
2018-11-04T14:22:17.734Z,11.36
2018-11-04T14:24:47.231Z,11.35
2018-11-04T14:27:15.897Z,11.37
2018-11-04T14:29:44.390Z,11.38
2018-11-04T14:32:13.291Z,11.38
2018-11-04T14:34:42.641Z,11.38
2018-11-04T14:37:11.514Z,11.37
2018-11-04T14:39:43.432Z,11.37
2018-11-04T14:42:12.426Z,11.35
2018-11-04T14:44:41.927Z,11.37
2018-11-04T14:47:09.761Z,11.37
2018-11-04T14:58:37.016Z,11.36
2018-11-04T15:01:05.023Z,11.37
2018-11-04T15:03:33.189Z,11.35
2018-11-04T15:06:02.142Z,11.36
2018-11-04T15:08:29.880Z,11.37
2018-11-04T15:10:58.326Z,11.37
2018-11-04T15:13:27.854Z,11.37
2018-11-04T15:15:56.583Z,11.39
2018-11-04T15:18:24.903Z,11.39
2018-11-04T15:20:53.231Z,11.39
2018-11-04T15:23:21.559Z,11.39
2018-11-04T15:25:49.890Z,11.38
2018-11-04T15:28:18.230Z,11.37
2018-11-04T15:30:46.290Z,11.37
2018-11-04T15:33:14.329Z,11.39
2018-11-04T15:35:43.248Z,11.40
2018-11-04T15:38:11.645Z,11.41
2018-11-04T15:40:40.010Z,11.41
2018-11-04T15:43:08.287Z,11.43
2018-11-04T15:45:36.614Z,11.45
2018-11-04T15:48:04.937Z,11.44
2018-11-04T15:50:33.280Z,11.43
2018-11-04T15:53:01.315Z,11.42
2018-11-04T15:55:29.628Z,11.40
2018-11-04T15:57:58.602Z,11.42
2018-11-04T16:00:26.940Z,11.45
2018-11-04T16:02:55.324Z,11.48
2018-11-04T16:05:24.045Z,11.49
2018-11-04T16:07:52.304Z,11.51
2018-11-04T16:10:20.097Z,11.53
2018-11-04T16:12:49.007Z,11.54
2018-11-04T16:15:17.392Z,11.54
2018-11-04T16:17:45.823Z,11.54
2018-11-04T16:20:14.155Z,11.53
2018-11-04T16:22:42.626Z,11.53
2018-11-04T16:25:11.185Z,11.54
2018-11-04T16:27:39.522Z,11.55
2018-11-04T16:30:07.298Z,11.56
2018-11-04T16:32:36.229Z,11.57
2018-11-04T16:35:04.554Z,11.57
2018-11-04T16:37:32.546Z,11.57
2018-11-04T16:40:01.639Z,11.56
2018-11-04T16:42:29.804Z,11.55
2018-11-04T16:44:58.112Z,11.55
2018-11-04T16:47:26.449Z,11.56
2018-11-04T16:49:54.267Z,11.60
2018-11-04T16:52:23.161Z,11.61
2018-11-04T16:54:51.520Z,11.64
2018-11-04T16:57:19.965Z,11.65
2018-11-04T16:59:48.296Z,11.67
2018-11-04T17:02:16.661Z,11.69
2018-11-04T17:04:45.180Z,11.71
2018-11-04T17:07:13.365Z,11.72
2018-11-04T17:09:41.114Z,11.72
2018-11-04T17:12:10.022Z,11.73
2018-11-04T17:14:38.352Z,11.73
2018-11-04T17:17:06.659Z,11.72
2018-11-04T17:19:34.416Z,11.70
2018-11-04T17:22:03.329Z,11.70
2018-11-04T17:24:31.078Z,11.69
2018-11-04T17:26:59.398Z,11.67
2018-11-04T17:29:28.308Z,11.67
2018-11-04T17:31:56.631Z,11.69
2018-11-04T17:34:25.186Z,11.70
2018-11-04T17:36:52.704Z,11.67
2018-11-04T17:39:21.605Z,11.64
2018-11-04T17:41:49.357Z,11.63
2018-11-04T17:44:18.319Z,11.63
2018-11-04T17:46:46.882Z,11.60
2018-11-04T17:49:15.797Z,11.61
2018-11-04T17:51:44.123Z,11.61
2018-11-04T17:54:11.977Z,11.62
2018-11-04T17:56:40.248Z,11.62
2018-11-04T17:59:09.159Z,11.60
2018-11-04T18:01:36.902Z,11.61
2018-11-04T18:04:05.236Z,11.61
2018-11-04T18:06:34.163Z,11.61
2018-11-04T18:09:02.496Z,11.60
2018-11-04T18:11:30.798Z,11.59
2018-11-04T18:13:59.219Z,11.62
2018-11-04T18:16:27.687Z,11.61
2018-11-04T18:18:55.206Z,11.62
2018-11-04T18:21:24.113Z,11.60
2018-11-04T18:23:51.917Z,11.57
2018-11-04T18:26:20.921Z,11.58
2018-11-04T18:28:49.489Z,11.56
2018-11-04T18:31:17.841Z,11.56
2018-11-04T18:33:46.161Z,11.56
2018-11-04T18:36:14.502Z,11.55
2018-11-04T18:38:42.841Z,11.56
2018-11-04T18:41:11.174Z,11.55
2018-11-04T18:43:39.516Z,11.56
2018-11-04T18:46:07.259Z,11.57
2018-11-04T18:48:36.167Z,11.57
2018-11-04T18:51:03.922Z,11.56
2018-11-04T18:53:32.242Z,11.52
2018-11-04T18:56:01.159Z,11.51
2018-11-04T18:58:29.511Z,11.50
2018-11-04T19:00:57.251Z,11.50
2018-11-04T19:03:26.175Z,11.48
2018-11-04T19:05:54.514Z,11.49
2018-11-04T19:08:22.272Z,11.48
2018-11-04T19:10:51.181Z,11.49
2018-11-04T19:13:19.538Z,11.48
2018-11-04T19:15:47.316Z,11.48
2018-11-04T19:18:16.240Z,11.48
2018-11-04T19:20:44.571Z,11.47
2018-11-04T19:23:12.899Z,11.47
2018-11-04T19:25:40.651Z,11.47
2018-11-04T19:28:09.588Z,11.49
2018-11-04T19:30:37.919Z,11.52
2018-11-04T19:33:07.106Z,11.53
2018-11-04T19:35:34.893Z,11.55
2018-11-04T19:38:03.221Z,11.57
2018-11-04T19:40:32.256Z,11.60
2018-11-04T19:43:00.597Z,11.62
2018-11-04T19:45:28.961Z,11.64
2018-11-04T19:47:56.735Z,11.66
2018-11-04T19:50:25.036Z,11.68
2018-11-04T19:52:53.942Z,11.70
2018-11-04T19:55:21.686Z,11.73
2018-11-04T19:57:50.658Z,11.72
2018-11-04T20:00:18.445Z,11.70
2018-11-04T20:02:47.442Z,11.70
2018-11-04T20:05:16.138Z,11.69
2018-11-04T20:07:44.452Z,11.69
2018-11-04T20:10:12.817Z,11.68
2018-11-04T20:12:40.692Z,11.67
2018-11-04T20:15:09.618Z,11.66
2018-11-04T20:17:38.026Z,11.65
2018-11-04T20:20:07.453Z,11.65
2018-11-04T20:22:37.020Z,11.62
2018-11-04T20:25:13.978Z,11.61
2018-11-04T20:27:42.383Z,11.60
2018-11-04T20:30:10.792Z,11.59
2018-11-04T20:32:40.820Z,11.57
2018-11-04T20:35:10.680Z,11.55
2018-11-04T20:37:39.667Z,11.54
2018-11-04T20:40:13.343Z,11.54
2018-11-04T20:42:41.721Z,11.53
2018-11-04T20:45:11.764Z,11.52
2018-11-04T20:47:39.466Z,11.51
2018-11-04T20:50:08.439Z,11.51
2018-11-04T20:52:37.194Z,11.52
2018-11-04T20:55:05.552Z,11.50
2018-11-04T20:57:33.893Z,11.51
2018-11-04T21:00:02.316Z,11.52
2018-11-04T21:02:30.475Z,11.53
2018-11-04T21:04:59.094Z,11.55
2018-11-04T21:07:27.459Z,11.56
2018-11-04T21:09:56.012Z,11.55
2018-11-04T21:12:24.409Z,11.55
2018-11-04T21:14:52.857Z,11.54
2018-11-04T21:17:22.091Z,11.54
2018-11-04T21:19:50.210Z,11.54
2018-11-04T21:22:18.535Z,11.56
2018-11-04T21:24:46.602Z,11.57
2018-11-04T21:27:15.571Z,11.57
2018-11-04T21:29:43.994Z,11.59
2018-11-04T21:32:11.998Z,11.59
2018-11-04T21:34:41.339Z,11.59
2018-11-04T21:37:10.395Z,11.59
2018-11-04T21:39:39.182Z,11.58
2018-11-04T21:42:07.020Z,11.58
2018-11-04T21:44:36.035Z,11.59
2018-11-04T21:47:04.373Z,11.60
2018-11-04T21:49:32.837Z,11.61
2018-11-04T21:52:02.282Z,11.62
2018-11-04T21:54:30.860Z,11.64
2018-11-04T21:56:59.696Z,11.65
2018-11-04T21:59:29.618Z,11.66
2018-11-04T22:01:57.933Z,11.67
2018-11-04T22:04:26.548Z,11.68
2018-11-04T22:06:54.825Z,11.70
2018-11-04T22:09:23.455Z,11.71
2018-11-04T22:11:51.812Z,11.71
2018-11-04T22:14:20.202Z,11.71
2018-11-04T22:16:48.527Z,11.72
2018-11-04T22:19:16.873Z,11.73
2018-11-04T22:21:44.616Z,11.73
2018-11-04T22:24:13.552Z,11.74
2018-11-04T22:26:41.935Z,11.74
2018-11-04T22:29:10.295Z,11.76
2018-11-04T22:31:38.784Z,11.76
2018-11-04T22:34:07.083Z,11.77
2018-11-04T22:36:34.854Z,11.78
2018-11-04T22:39:03.155Z,11.78
2018-11-04T22:41:32.218Z,11.78
2018-11-04T22:44:00.540Z,11.79
2018-11-04T22:46:28.881Z,11.78
2018-11-04T22:48:57.207Z,11.77
2018-11-04T22:51:24.944Z,11.78
2018-11-04T22:53:53.366Z,11.79
2018-11-04T22:56:21.844Z,11.78
2018-11-04T22:58:50.736Z,11.78
2018-11-04T23:01:19.283Z,11.79
2018-11-04T23:03:47.788Z,11.83
2018-11-04T23:06:15.537Z,11.83
2018-11-04T23:08:44.560Z,11.85
2018-11-04T23:11:12.886Z,11.85
2018-11-04T23:13:41.278Z,11.87
2018-11-04T23:16:09.715Z,11.88
2018-11-04T23:18:38.245Z,11.86
2018-11-04T23:21:06.555Z,11.87
2018-11-04T23:23:34.319Z,11.89
2018-11-04T23:26:03.291Z,11.90
2018-11-04T23:28:31.021Z,11.90
2018-11-04T23:30:59.435Z,11.92
2018-11-04T23:33:28.519Z,11.94
2018-11-04T23:35:56.834Z,11.96
2018-11-04T23:38:25.267Z,11.98
2018-11-04T23:40:53.595Z,11.97
2018-11-04T23:43:21.343Z,11.96
2018-11-04T23:45:50.356Z,11.95
2018-11-04T23:48:18.878Z,11.95
2018-11-04T23:50:47.303Z,11.96
2018-11-04T23:53:15.632Z,11.97
2018-11-04T23:55:44.561Z,11.97
2018-11-04T23:58:12.336Z,11.98
